Latest Weather Observations for Low Isles

IDQ60801

Issued at 6:02 pm EST Wednesday 27 May 2015 (issued every 30 minutes, with the page automatically refreshed every 10 minutes)

About weather observations | Map of weather stations | Latest weather observations for QLD | Other Formats
Station Details ID: 031037 Name: LOW ISLES LIGHTHOUSE Lat: -16.38 Lon: 145.56 Height: 2.9 m
Data from the previous 72 hours. | See also: Recent months at Low Isles
Date/Time
EST
Temp
°C
App
Temp
°C
Dew
Point
Rel
Hum
%
Delta-T
°C
Wind Press
QNH
hPa
Press
MSL
hPa
Rain
since 9 am
mm
Dir
 
Spd
km/h
Gust
km/h
Spd
kts
Gust
kts
27/06:00pm 24.7 21.6 21.2 81 2.3 SE 39 44 21 24 1015.9 1015.8 0.2
27/05:30pm 24.9 21.8 21.2 80 2.4 SE 39 46 21 25 1015.7 - 0.2
27/05:00pm 25.1 22.3 21.8 82 2.2 SE 39 43 21 23 1015.7 - 0.2
27/04:30pm 25.3 22.2 21.2 78 2.7 SE 39 46 21 25 1015.6 - 0.2
27/04:00pm 26.1 24.3 21.5 76 3.1 SE 33 41 18 22 1015.6 - 0.2
27/03:30pm 25.9 24.3 21.8 78 2.7 SE 33 37 18 20 1015.6 - 0.2
27/03:00pm 26.0 24.1 21.4 76 3.0 SE 33 39 18 21 1015.7 1015.6 0.2
27/02:30pm 26.1 24.3 21.5 76 3.1 SE 33 37 18 20 1015.8 - 0.2
27/02:00pm 26.6 25.1 22.0 76 3.1 SE 33 37 18 20 1015.9 - 0.2
27/01:30pm 26.6 24.5 21.6 74 3.3 SE 35 43 19 23 1016.2 - 0.2
27/01:00pm 26.1 23.9 21.5 76 3.1 SE 35 41 19 22 1016.7 - 0.2
27/12:30pm 26.2 24.7 21.0 73 3.4 SE 30 35 16 19 1017.4 - 0.2
27/12:00pm 26.0 24.0 21.2 75 3.2 SE 33 39 18 21 1017.5 1017.4 0.2
27/11:30am 26.1 24.0 20.9 73 3.4 SE 33 37 18 20 1017.8 - 0.0
27/11:00am 25.1 23.5 20.8 77 2.8 SSE 30 35 16 19 1018.1 - 0.0
27/10:30am 24.8 22.5 20.5 77 2.8 SSE 33 35 18 19 1018.4 - 0.0
27/10:00am 24.6 22.7 20.9 80 2.4 SSE 32 37 17 20 1018.5 - 0.0
27/09:30am 24.6 23.2 21.1 81 2.3 SSE 30 33 16 18 1018.7 - 0.0
27/09:00am 24.2 22.8 20.5 80 2.4 SSE 28 32 15 17 1018.6 1018.5 0.2
27/08:30am 24.1 21.8 20.2 79 2.5 SSE 32 35 17 19 1018.3 - 0.2
27/08:00am 24.0 22.3 20.5 81 2.3 SSE 30 33 16 18 1017.9 - 0.2
27/07:30am 24.0 22.5 20.9 83 2.0 SSE 30 35 16 19 1017.8 - 0.2
27/07:00am 24.0 22.4 20.7 82 2.2 SSE 30 33 16 18 1017.8 - 0.2
27/06:30am 24.0 22.8 20.9 83 2.0 SSE 28 35 15 19 1017.7 - 0.2
27/06:00am 24.0 22.5 20.9 83 2.0 SSE 30 35 16 19 1017.4 1017.3 0.2
27/05:30am 24.4 22.5 20.9 81 2.3 SE 32 37 17 20 1017.1 - 0.2
27/05:00am 23.9 22.3 20.8 83 2.0 SSE 30 39 16 21 1016.9 - 0.2
27/04:30am 24.4 22.1 20.1 77 2.8 SE 32 39 17 21 1016.8 - 0.2
27/04:00am 24.3 22.5 20.4 79 2.5 ESE 30 41 16 22 1016.9 - 0.2
27/03:43am 23.7 21.1 19.8 79 2.5 ESE 33 52 18 28 1016.9 - 0.2
27/03:30am 23.9 21.5 20.0 79 2.5 ESE 32 39 17 21 1017.0 - 0.2
27/03:00am 23.8 20.3 19.7 78 2.6 ESE 37 46 20 25 1017.1 1017.0 0.2
27/02:58am 24.1 21.0 20.4 80 2.4 ESE 37 43 20 23 1017.1 - 0.2
27/02:30am 23.9 22.3 20.8 83 2.0 S 30 35 16 19 1017.2 - 0.2
27/02:00am 24.4 21.7 19.7 75 3.0 ESE 33 41 18 22 1017.6 - 0.2
27/01:30am 24.5 22.1 20.0 76 2.9 SE 32 41 17 22 1018.0 - 0.2
27/01:00am 24.4 21.3 19.7 75 3.0 SE 35 44 19 24 1018.1 - 0.2
27/12:30am 23.9 23.2 21.0 84 1.9 SSE 26 30 14 16 1018.2 - 0.2
27/12:00am 23.2 23.0 20.5 85 1.7 S 22 28 12 15 1018.3 1018.2 0.2
 
Date/Time
EST
Temp
°C
App
Temp
°C
Dew
Point
Rel
Hum
%
Delta-T
°C
Wind Press
QNH
hPa
Press
MSL
hPa
Rain
since 9 am
mm
Dir
 
Spd
km/h
Gust
km/h
Spd
kts
Gust
kts
26/11:30pm 23.3 22.9 20.1 82 2.1 SE 22 30 12 16 1018.6 - 0.2
26/11:00pm 22.9 19.3 20.1 84 1.8 SE 39 46 21 25 1019.1 - 0.2
26/10:30pm 23.8 18.7 19.9 79 2.5 SE 46 59 25 32 1019.0 - 0.2
26/10:00pm 24.3 20.2 20.8 81 2.3 SE 43 52 23 28 1018.9 - 0.2
26/09:37pm 24.0 22.0 20.7 82 2.2 SSE 32 50 17 27 1019.0 - 0.2
26/09:30pm 24.8 22.0 21.1 80 2.4 SE 37 43 20 23 1018.9 - 0.0
26/09:00pm 24.7 22.6 21.0 80 2.4 SE 33 41 18 22 1018.9 1018.8 0.0
26/08:30pm 25.1 22.2 20.1 74 3.2 SE 35 43 19 23 1018.6 - 0.0
26/08:00pm 25.1 22.2 20.1 74 3.2 SE 35 43 19 23 1018.5 - 0.0
26/07:30pm 25.1 21.4 19.9 73 3.4 SE 39 46 21 25 1018.3 - 0.0
26/07:00pm 25.0 22.4 19.8 73 3.4 SE 33 44 18 24 1018.3 - 0.0
26/06:30pm 24.2 23.1 21.1 83 2.0 S 28 33 15 18 1018.1 - 0.0
26/06:00pm 24.1 22.1 20.8 82 2.2 SSE 32 37 17 20 1017.9 1017.8 0.0
26/05:30pm 24.3 21.5 21.0 82 2.2 SE 37 44 20 24 1017.7 - 0.0
26/05:00pm 24.1 21.2 20.8 82 2.2 SSE 37 43 20 23 1017.4 - 0.0
26/04:30pm 24.4 20.8 20.9 81 2.3 SE 41 46 22 25 1017.5 - 0.0
26/04:00pm 25.0 22.5 20.9 78 2.7 SSE 35 41 19 22 1017.2 - 0.0
26/03:30pm 25.9 23.1 21.1 75 3.2 SE 37 44 20 24 1017.3 - 0.0
26/03:00pm 26.1 23.6 20.9 73 3.4 SE 35 41 19 22 1017.5 1017.4 0.0
26/02:30pm 26.2 23.0 21.0 73 3.4 SE 39 44 21 24 1017.4 - 0.0
26/02:00pm 26.4 23.0 21.4 74 3.3 SE 41 48 22 26 1017.6 - 0.0
26/01:30pm 26.2 23.5 21.2 74 3.3 SE 37 43 20 23 1018.0 - 0.0
26/01:00pm 26.1 22.7 21.3 75 3.2 SE 41 46 22 25 1018.5 - 0.0
26/12:30pm 25.7 22.4 20.9 75 3.2 SE 39 46 21 25 1019.0 - 0.0
26/12:00pm 26.0 22.9 21.2 75 3.2 SSE 39 44 21 24 1019.6 1019.5 0.0
26/11:30am 25.6 22.6 21.3 77 2.8 SSE 39 44 21 24 1020.1 - 0.0
26/11:00am 25.4 22.4 21.3 78 2.7 SSE 39 43 21 23 1020.3 - 0.0
26/10:30am 24.8 22.4 21.1 80 2.4 SSE 35 41 19 22 1020.7 - 0.0
26/10:00am 24.3 22.0 21.2 83 2.0 SSE 35 41 19 22 1020.9 - 0.0
26/09:30am 24.3 22.9 21.2 83 2.0 SSE 30 35 16 19 1020.9 - 0.0
26/09:00am 24.0 22.0 21.1 84 1.9 SSE 33 39 18 21 1020.8 1020.7 2.0
26/08:30am 23.9 21.6 20.6 82 2.2 SSE 33 39 18 21 1020.5 - 2.0
26/08:00am 23.8 21.9 20.9 84 1.9 SSE 32 35 17 19 1020.2 - 2.0
26/07:30am 23.5 21.3 20.8 85 1.8 SSE 33 37 18 20 1020.0 - 2.0
26/07:00am 23.8 21.3 20.9 84 1.9 SSE 35 39 19 21 1019.8 - 2.0
26/06:30am 23.9 21.8 21.0 84 1.9 SSE 33 39 18 21 1019.7 - 2.0
26/06:00am 24.0 22.0 21.1 84 1.9 SSE 33 37 18 20 1019.6 1019.5 2.0
26/05:30am 23.6 21.5 20.9 85 1.8 SSE 33 41 18 22 1019.4 - 2.0
26/05:00am 23.9 22.3 20.8 83 2.0 SSE 30 33 16 18 1019.2 - 2.0
26/04:30am 23.9 21.8 20.6 82 2.2 S 32 35 17 19 1019.2 - 2.0
26/04:00am 24.0 21.9 20.5 81 2.3 S 32 37 17 20 1018.9 - 2.0
26/03:30am 24.2 22.2 21.1 83 2.0 SSE 33 37 18 20 1019.1 - 2.0
26/03:00am 24.1 22.2 21.0 83 2.0 S 32 35 17 19 1019.4 1019.3 2.0
26/02:30am 24.4 22.1 20.5 79 2.5 SSE 33 43 18 23 1019.7 - 2.0
26/02:00am 24.7 21.2 20.4 77 2.8 SE 39 44 21 24 1019.9 - 2.0
26/01:30am 24.5 21.6 19.3 73 3.3 SE 33 41 18 22 1020.1 - 2.0
26/01:00am 24.6 21.2 19.9 75 3.0 SE 37 46 20 25 1020.3 - 2.0
26/12:30am 24.6 21.3 20.1 76 2.9 SE 37 46 20 25 1020.2 - 2.0
26/12:00am 24.5 21.2 20.0 76 2.9 SE 37 48 20 26 1020.3 1020.2 2.0
 
Date/Time
EST
Temp
°C
App
Temp
°C
Dew
Point
Rel
Hum
%
Delta-T
°C
Wind Press
QNH
hPa
Press
MSL
hPa
Rain
since 9 am
mm
Dir
 
Spd
km/h
Gust
km/h
Spd
kts
Gust
kts
25/11:30pm 24.5 21.9 20.6 79 2.5 ESE 35 46 19 25 1020.5 - 2.0
25/11:00pm 24.5 21.8 20.4 78 2.7 ESE 35 44 19 24 1020.7 - 2.0
25/10:30pm 24.6 22.1 20.9 80 2.4 SE 35 46 19 25 1020.9 - 2.0
25/10:00pm 24.4 21.2 20.3 78 2.7 SE 37 48 20 26 1021.0 - 2.0
25/09:30pm 23.9 22.0 21.4 86 1.6 SSE 33 41 18 22 1020.8 - 1.8
25/09:00pm 23.2 21.2 21.1 88 1.4 SSE 33 43 18 23 1020.7 1020.6 1.8
25/08:30pm 23.7 21.3 21.0 85 1.8 SSE 35 41 19 22 1020.4 - 0.8
25/08:00pm 24.2 21.1 20.5 80 2.4 SSE 37 41 20 22 1020.2 - 0.8
25/07:30pm 24.5 21.0 21.2 82 2.2 SSE 41 48 22 26 1019.9 - 0.8
25/07:00pm 24.3 20.0 20.8 81 2.3 SE 44 48 24 26 1019.5 - 0.8
25/06:30pm 24.8 19.6 20.5 77 2.8 SE 48 54 26 29 1019.2 - 0.8
25/06:00pm 24.8 21.8 21.3 81 2.3 SE 39 50 21 27 1018.9 1018.8 0.8
25/05:30pm 24.4 21.0 20.7 80 2.4 SE 39 46 21 25 1018.8 - 0.8
25/05:00pm 24.9 21.4 21.2 80 2.4 SE 41 50 22 27 1018.7 - 0.8
25/04:30pm 24.6 21.7 21.5 83 2.1 SE 39 46 21 25 1018.7 - 0.8
25/04:02pm 23.9 23.0 21.4 86 1.6 SSE 28 46 15 25 1018.5 - 0.8
25/04:00pm 23.9 23.6 21.8 88 1.4 SSE 26 41 14 22 1018.5 - 0.6
25/03:30pm 23.6 21.8 21.1 86 1.6 SE 32 39 17 21 1018.7 - 0.4
25/03:00pm 24.4 21.2 21.1 82 2.2 SSE 39 44 21 24 1018.8 1018.7 0.2
25/02:30pm 24.7 20.8 21.2 81 2.3 SSE 43 56 23 30 1018.8 - 0.2
25/02:00pm 24.7 20.9 21.4 82 2.2 SSE 43 48 23 26 1019.0 - 0.2
25/01:30pm 24.7 20.4 20.4 77 2.8 SSE 43 48 23 26 1019.5 - 0.2
25/01:00pm 25.0 21.6 21.3 80 2.4 SE 41 46 22 25 1020.0 - 0.2
25/12:30pm 25.1 21.5 21.0 78 2.7 SE 41 50 22 27 1020.4 - 0.2
25/12:00pm 25.2 21.5 21.5 80 2.4 SE 43 50 23 27 1020.7 1020.6 0.2
25/11:30am 25.1 21.0 21.8 82 2.2 SE 46 57 25 31 1021.1 - 0.2
25/11:00am 25.1 21.5 22.0 83 2.1 SE 44 56 24 30 1021.2 - 0.0
25/10:30am 26.0 23.2 21.7 77 2.9 SE 39 48 21 26 1021.4 - 0.0
25/10:00am 25.9 24.3 21.8 78 2.7 SE 33 43 18 23 1021.4 - 0.0
25/09:40am 25.4 22.4 21.3 78 2.7 SE 39 57 21 31 1021.4 - 0.0
25/09:30am 25.4 22.8 21.5 79 2.6 SE 37 46 20 25 1021.3 - 0.0
25/09:00am 25.3 22.4 21.6 80 2.4 ESE 39 50 21 27 1021.2 1021.1 1.6
25/08:30am 24.9 21.9 21.4 81 2.3 ESE 39 50 21 27 1020.9 - 1.6
25/08:00am 24.3 20.9 21.4 84 1.9 ESE 41 52 22 28 1020.5 - 1.6
25/07:44am 24.1 21.7 21.8 87 1.5 ESE 37 56 20 30 1020.2 - 1.6
25/07:30am 25.4 22.8 21.5 79 2.6 ESE 37 50 20 27 1020.1 - 0.6
25/07:00am 25.1 22.1 21.4 80 2.4 ESE 39 46 21 25 1019.8 - 0.6
25/06:30am 25.1 22.4 21.2 79 2.6 ESE 37 46 20 25 1019.6 - 0.6
25/06:00am 25.0 22.6 21.1 79 2.6 ESE 35 44 19 24 1019.1 1019.0 0.6
25/05:30am 25.0 22.2 21.1 79 2.6 ESE 37 44 20 24 1018.9 - 0.6
25/05:00am 24.9 22.2 21.2 80 2.4 ESE 37 48 20 26 1018.6 - 0.6
25/04:30am 24.9 21.7 21.0 79 2.6 SE 39 50 21 27 1018.6 - 0.6
25/04:00am 24.8 22.4 21.1 80 2.4 ESE 35 44 19 24 1018.5 - 0.6
25/03:30am 24.6 22.8 21.5 83 2.1 ESE 33 43 18 23 1018.5 - 0.6
25/03:00am 24.4 22.3 21.7 85 1.8 ESE 35 43 19 23 1018.5 1018.4 0.6
25/02:30am 24.3 23.5 21.6 85 1.8 ESE 28 41 15 22 1018.7 - 0.4
25/02:00am 23.7 24.1 21.8 89 1.3 SSE 22 28 12 15 1019.1 - 0.4
25/01:30am 23.7 22.7 21.2 86 1.6 SSE 28 33 15 18 1019.3 - 0.0
25/01:00am 24.5 24.1 21.0 81 2.3 SSE 24 28 13 15 1019.4 - 0.0
25/12:30am 24.5 24.1 21.0 81 2.3 SSE 24 30 13 16 1019.5 - 0.0
25/12:00am 24.6 23.5 21.1 81 2.3 SSE 28 33 15 18 1019.6 1019.5 0.0
 
Date/Time
EST
Temp
°C
App
Temp
°C
Dew
Point
Rel
Hum
%
Delta-T
°C
Wind Press
QNH
hPa
Press
MSL
hPa
Rain
since 9 am
mm
Dir
 
Spd
km/h
Gust
km/h
Spd
kts
Gust
kts
24/11:30pm 24.6 23.2 21.1 81 2.3 SSE 30 33 16 18 1019.8 - 0.0
24/11:00pm 24.5 22.4 20.6 79 2.5 SSE 32 35 17 19 1019.9 - 0.0
24/10:30pm 24.6 22.2 21.1 81 2.3 SSE 35 39 19 21 1020.0 - 0.0
24/10:00pm 24.6 22.1 20.9 80 2.4 SSE 35 41 19 22 1019.9 - 0.0
24/09:30pm 24.6 21.6 20.7 79 2.6 SSE 37 41 20 22 1019.8 - 0.0
24/09:00pm 24.6 21.5 20.5 78 2.7 SSE 37 44 20 24 1019.8 1019.7 0.0
24/08:30pm 24.6 22.0 20.7 79 2.6 SSE 35 41 19 22 1019.7 - 0.0
24/08:00pm 24.3 21.7 20.6 80 2.4 SSE 35 43 19 23 1019.5 - 0.0
24/07:30pm 24.3 19.5 20.4 79 2.5 SSE 46 54 25 29 1019.1 - 0.0
24/07:00pm 24.9 20.6 20.4 76 2.9 SE 43 48 23 26 1018.7 - 0.0
24/06:30pm 24.8 21.3 20.3 76 2.9 SE 39 46 21 25 1018.4 - 0.0

Other Formats:

Comma delimited format used in spreadsheet applications
http://www.bom.gov.au/fwo/IDQ60801/IDQ60801.94285.axf

JavaScript Object Notation format (JSON) in row-major order
http://www.bom.gov.au/fwo/IDQ60801/IDQ60801.94285.json